sensor_id;sensor_type;location;lat;lon;timestamp;P1;durP1;ratioP1;P2;durP2;ratioP2
48094;SDS011;33874;52.070;-0.516;2023-07-02T00:00:25;31.30;;;12.00;;
48094;SDS011;33874;52.070;-0.516;2023-07-02T00:03:14;27.20;;;10.90;;
48094;SDS011;33874;52.070;-0.516;2023-07-02T00:05:42;30.70;;;12.10;;
48094;SDS011;33874;52.070;-0.516;2023-07-02T00:08:10;31.10;;;12.20;;
48094;SDS011;33874;52.070;-0.516;2023-07-02T00:10:38;32.60;;;12.40;;
48094;SDS011;33874;52.070;-0.516;2023-07-02T00:13:06;30.70;;;13.30;;
48094;SDS011;33874;52.070;-0.516;2023-07-02T00:15:34;33.50;;;13.30;;
48094;SDS011;33874;52.070;-0.516;2023-07-02T00:18:02;28.40;;;12.50;;
48094;SDS011;33874;52.070;-0.516;2023-07-02T00:20:30;33.60;;;13.10;;
48094;SDS011;33874;52.070;-0.516;2023-07-02T00:23:02;33.30;;;11.90;;
48094;SDS011;33874;52.070;-0.516;2023-07-02T00:25:31;30.30;;;12.90;;
48094;SDS011;33874;52.070;-0.516;2023-07-02T00:27:58;28.90;;;12.50;;
48094;SDS011;33874;52.070;-0.516;2023-07-02T00:30:26;28.80;;;11.60;;
48094;SDS011;33874;52.070;-0.516;2023-07-02T00:32:55;32.50;;;10.70;;
48094;SDS011;33874;52.070;-0.516;2023-07-02T00:35:23;33.20;;;11.60;;
48094;SDS011;33874;52.070;-0.516;2023-07-02T00:37:51;24.10;;;10.00;;
48094;SDS011;33874;52.070;-0.516;2023-07-02T00:40:19;28.50;;;10.90;;
48094;SDS011;33874;52.070;-0.516;2023-07-02T00:42:47;25.00;;;10.30;;
48094;SDS011;33874;52.070;-0.516;2023-07-02T00:45:15;23.70;;;10.40;;
48094;SDS011;33874;52.070;-0.516;2023-07-02T00:47:43;26.30;;;10.90;;
48094;SDS011;33874;52.070;-0.516;2023-07-02T00:50:13;26.70;;;10.80;;
48094;SDS011;33874;52.070;-0.516;2023-07-02T00:52:41;31.80;;;11.60;;
48094;SDS011;33874;52.070;-0.516;2023-07-02T00:55:09;28.10;;;11.90;;
48094;SDS011;33874;52.070;-0.516;2023-07-02T00:57:37;29.50;;;11.80;;
48094;SDS011;33874;52.070;-0.516;2023-07-02T01:00:08;24.60;;;10.80;;
48094;SDS011;33874;52.070;-0.516;2023-07-02T01:02:36;25.00;;;10.40;;
48094;SDS011;33874;52.070;-0.516;2023-07-02T01:05:06;26.40;;;9.20;;
48094;SDS011;33874;52.070;-0.516;2023-07-02T01:07:34;23.50;;;10.20;;
48094;SDS011;33874;52.070;-0.516;2023-07-02T01:10:02;28.10;;;10.70;;
48094;SDS011;33874;52.070;-0.516;2023-07-02T01:12:31;26.60;;;10.30;;
48094;SDS011;33874;52.070;-0.516;2023-07-02T01:15:00;33.20;;;11.40;;
48094;SDS011;33874;52.070;-0.516;2023-07-02T01:17:32;28.60;;;10.10;;
48094;SDS011;33874;52.070;-0.516;2023-07-02T01:20:09;28.50;;;11.20;;
48094;SDS011;33874;52.070;-0.516;2023-07-02T01:22:38;26.70;;;11.30;;
48094;SDS011;33874;52.070;-0.516;2023-07-02T01:25:08;23.30;;;9.10;;
48094;SDS011;33874;52.070;-0.516;2023-07-02T01:27:37;26.10;;;9.40;;
48094;SDS011;33874;52.070;-0.516;2023-07-02T01:30:05;28.30;;;9.80;;
48094;SDS011;33874;52.070;-0.516;2023-07-02T01:32:34;27.90;;;10.50;;
48094;SDS011;33874;52.070;-0.516;2023-07-02T01:35:02;28.20;;;10.70;;
48094;SDS011;33874;52.070;-0.516;2023-07-02T01:37:30;29.50;;;10.60;;
48094;SDS011;33874;52.070;-0.516;2023-07-02T01:40:05;27.40;;;10.50;;
48094;SDS011;33874;52.070;-0.516;2023-07-02T01:42:37;28.40;;;11.20;;
48094;SDS011;33874;52.070;-0.516;2023-07-02T01:45:06;27.60;;;11.90;;
48094;SDS011;33874;52.070;-0.516;2023-07-02T01:47:34;25.30;;;10.70;;
48094;SDS011;33874;52.070;-0.516;2023-07-02T01:50:04;28.00;;;12.40;;
48094;SDS011;33874;52.070;-0.516;2023-07-02T01:52:32;18.70;;;9.10;;
48094;SDS011;33874;52.070;-0.516;2023-07-02T01:55:01;26.00;;;10.50;;
48094;SDS011;33874;52.070;-0.516;2023-07-02T01:57:29;27.70;;;10.60;;
48094;SDS011;33874;52.070;-0.516;2023-07-02T01:59:58;25.60;;;10.60;;
48094;SDS011;33874;52.070;-0.516;2023-07-02T02:02:26;26.00;;;10.70;;
48094;SDS011;33874;52.070;-0.516;2023-07-02T02:04:54;26.60;;;10.10;;
48094;SDS011;33874;52.070;-0.516;2023-07-02T02:07:24;30.90;;;11.10;;
48094;SDS011;33874;52.070;-0.516;2023-07-02T02:09:53;25.90;;;9.80;;
48094;SDS011;33874;52.070;-0.516;2023-07-02T02:12:22;33.60;;;9.60;;
48094;SDS011;33874;52.070;-0.516;2023-07-02T02:14:50;25.80;;;11.20;;
48094;SDS011;33874;52.070;-0.516;2023-07-02T02:17:18;24.50;;;10.90;;
48094;SDS011;33874;52.070;-0.516;2023-07-02T02:19:46;26.50;;;10.10;;
48094;SDS011;33874;52.070;-0.516;2023-07-02T02:22:13;29.80;;;11.10;;
48094;SDS011;33874;52.070;-0.516;2023-07-02T02:24:42;29.40;;;10.90;;
48094;SDS011;33874;52.070;-0.516;2023-07-02T02:27:10;33.80;;;11.30;;
48094;SDS011;33874;52.070;-0.516;2023-07-02T02:29:38;30.80;;;10.90;;
48094;SDS011;33874;52.070;-0.516;2023-07-02T02:32:06;26.90;;;10.90;;
48094;SDS011;33874;52.070;-0.516;2023-07-02T02:34:34;28.10;;;11.50;;
48094;SDS011;33874;52.070;-0.516;2023-07-02T02:37:02;34.40;;;10.80;;
48094;SDS011;33874;52.070;-0.516;2023-07-02T02:39:30;27.70;;;11.30;;
48094;SDS011;33874;52.070;-0.516;2023-07-02T02:41:58;26.50;;;10.30;;
48094;SDS011;33874;52.070;-0.516;2023-07-02T02:44:26;25.00;;;9.30;;
48094;SDS011;33874;52.070;-0.516;2023-07-02T02:46:54;28.10;;;10.30;;
48094;SDS011;33874;52.070;-0.516;2023-07-02T02:49:22;29.50;;;11.10;;
48094;SDS011;33874;52.070;-0.516;2023-07-02T02:51:50;31.10;;;10.50;;
48094;SDS011;33874;52.070;-0.516;2023-07-02T02:54:18;22.00;;;9.80;;
48094;SDS011;33874;52.070;-0.516;2023-07-02T02:56:46;27.30;;;10.80;;
48094;SDS011;33874;52.070;-0.516;2023-07-02T02:59:14;23.90;;;10.60;;
48094;SDS011;33874;52.070;-0.516;2023-07-02T03:01:41;27.50;;;10.30;;
48094;SDS011;33874;52.070;-0.516;2023-07-02T03:04:09;32.60;;;11.00;;
48094;SDS011;33874;52.070;-0.516;2023-07-02T03:06:37;28.70;;;9.90;;
48094;SDS011;33874;52.070;-0.516;2023-07-02T03:09:06;25.80;;;10.10;;
48094;SDS011;33874;52.070;-0.516;2023-07-02T03:11:34;28.00;;;10.30;;
48094;SDS011;33874;52.070;-0.516;2023-07-02T03:14:02;30.50;;;10.20;;
48094;SDS011;33874;52.070;-0.516;2023-07-02T03:16:30;27.70;;;10.50;;
48094;SDS011;33874;52.070;-0.516;2023-07-02T03:18:58;28.10;;;10.40;;
48094;SDS011;33874;52.070;-0.516;2023-07-02T03:21:26;26.20;;;9.20;;
48094;SDS011;33874;52.070;-0.516;2023-07-02T03:23:54;24.60;;;10.50;;
48094;SDS011;33874;52.070;-0.516;2023-07-02T03:26:22;19.30;;;9.40;;
48094;SDS011;33874;52.070;-0.516;2023-07-02T03:28:51;20.40;;;8.40;;
48094;SDS011;33874;52.070;-0.516;2023-07-02T03:31:19;28.80;;;10.30;;
48094;SDS011;33874;52.070;-0.516;2023-07-02T03:33:47;25.90;;;10.10;;
48094;SDS011;33874;52.070;-0.516;2023-07-02T03:36:15;31.10;;;11.10;;
48094;SDS011;33874;52.070;-0.516;2023-07-02T03:38:43;28.80;;;10.00;;
48094;SDS011;33874;52.070;-0.516;2023-07-02T03:41:11;24.20;;;10.40;;
48094;SDS011;33874;52.070;-0.516;2023-07-02T03:43:39;29.50;;;10.80;;
48094;SDS011;33874;52.070;-0.516;2023-07-02T03:46:07;29.70;;;10.30;;
48094;SDS011;33874;52.070;-0.516;2023-07-02T03:48:35;23.60;;;11.20;;
48094;SDS011;33874;52.070;-0.516;2023-07-02T03:51:03;33.30;;;10.70;;
48094;SDS011;33874;52.070;-0.516;2023-07-02T03:53:31;24.80;;;9.50;;
48094;SDS011;33874;52.070;-0.516;2023-07-02T03:55:59;26.60;;;9.70;;
48094;SDS011;33874;52.070;-0.516;2023-07-02T03:58:27;29.20;;;11.20;;
48094;SDS011;33874;52.070;-0.516;2023-07-02T04:00:55;22.60;;;8.80;;
48094;SDS011;33874;52.070;-0.516;2023-07-02T04:03:23;31.20;;;12.00;;
48094;SDS011;33874;52.070;-0.516;2023-07-02T04:05:51;30.00;;;10.80;;
48094;SDS011;33874;52.070;-0.516;2023-07-02T04:08:21;26.10;;;10.00;;
48094;SDS011;33874;52.070;-0.516;2023-07-02T04:10:49;25.20;;;8.90;;
48094;SDS011;33874;52.070;-0.516;2023-07-02T04:13:17;21.20;;;8.50;;
48094;SDS011;33874;52.070;-0.516;2023-07-02T04:15:45;22.20;;;9.00;;
48094;SDS011;33874;52.070;-0.516;2023-07-02T04:18:13;24.70;;;9.00;;
48094;SDS011;33874;52.070;-0.516;2023-07-02T04:20:41;25.50;;;9.10;;
48094;SDS011;33874;52.070;-0.516;2023-07-02T04:23:09;25.60;;;10.10;;
48094;SDS011;33874;52.070;-0.516;2023-07-02T04:25:37;28.70;;;9.90;;
48094;SDS011;33874;52.070;-0.516;2023-07-02T04:28:25;26.80;;;8.80;;
48094;SDS011;33874;52.070;-0.516;2023-07-02T04:30:53;26.90;;;8.80;;
48094;SDS011;33874;52.070;-0.516;2023-07-02T04:33:21;18.00;;;8.00;;
48094;SDS011;33874;52.070;-0.516;2023-07-02T04:35:49;24.80;;;8.90;;
48094;SDS011;33874;52.070;-0.516;2023-07-02T04:38:17;30.60;;;9.80;;
48094;SDS011;33874;52.070;-0.516;2023-07-02T04:40:45;23.90;;;9.20;;
48094;SDS011;33874;52.070;-0.516;2023-07-02T04:43:14;20.60;;;8.50;;
48094;SDS011;33874;52.070;-0.516;2023-07-02T04:45:46;21.00;;;7.50;;
48094;SDS011;33874;52.070;-0.516;2023-07-02T04:48:16;24.20;;;8.70;;
48094;SDS011;33874;52.070;-0.516;2023-07-02T04:50:44;28.30;;;10.30;;
48094;SDS011;33874;52.070;-0.516;2023-07-02T04:53:12;33.00;;;9.90;;
48094;SDS011;33874;52.070;-0.516;2023-07-02T04:55:40;29.40;;;10.00;;
48094;SDS011;33874;52.070;-0.516;2023-07-02T04:58:08;24.50;;;9.20;;
48094;SDS011;33874;52.070;-0.516;2023-07-02T05:00:36;22.30;;;8.20;;
48094;SDS011;33874;52.070;-0.516;2023-07-02T05:03:04;22.80;;;7.80;;
48094;SDS011;33874;52.070;-0.516;2023-07-02T05:05:32;18.70;;;8.50;;
48094;SDS011;33874;52.070;-0.516;2023-07-02T05:08:00;29.90;;;9.20;;
48094;SDS011;33874;52.070;-0.516;2023-07-02T05:10:28;22.10;;;8.00;;
48094;SDS011;33874;52.070;-0.516;2023-07-02T05:12:56;23.20;;;9.40;;
48094;SDS011;33874;52.070;-0.516;2023-07-02T05:15:24;21.40;;;8.70;;
48094;SDS011;33874;52.070;-0.516;2023-07-02T05:17:53;21.20;;;8.30;;
48094;SDS011;33874;52.070;-0.516;2023-07-02T05:20:21;21.40;;;8.00;;
48094;SDS011;33874;52.070;-0.516;2023-07-02T05:22:49;22.00;;;7.90;;
48094;SDS011;33874;52.070;-0.516;2023-07-02T05:25:17;22.10;;;7.70;;
48094;SDS011;33874;52.070;-0.516;2023-07-02T05:27:45;19.20;;;8.10;;
48094;SDS011;33874;52.070;-0.516;2023-07-02T05:30:15;22.70;;;8.30;;
48094;SDS011;33874;52.070;-0.516;2023-07-02T05:32:43;23.00;;;7.40;;
48094;SDS011;33874;52.070;-0.516;2023-07-02T05:35:11;23.80;;;8.50;;
48094;SDS011;33874;52.070;-0.516;2023-07-02T05:37:39;25.20;;;7.80;;
48094;SDS011;33874;52.070;-0.516;2023-07-02T05:40:07;19.50;;;7.60;;
48094;SDS011;33874;52.070;-0.516;2023-07-02T05:42:35;20.70;;;7.10;;
48094;SDS011;33874;52.070;-0.516;2023-07-02T05:45:05;16.40;;;7.10;;
48094;SDS011;33874;52.070;-0.516;2023-07-02T05:47:33;24.90;;;8.70;;
48094;SDS011;33874;52.070;-0.516;2023-07-02T05:50:01;22.90;;;7.80;;
48094;SDS011;33874;52.070;-0.516;2023-07-02T05:52:29;18.00;;;6.90;;
48094;SDS011;33874;52.070;-0.516;2023-07-02T05:54:57;16.30;;;6.80;;
48094;SDS011;33874;52.070;-0.516;2023-07-02T05:57:25;21.50;;;7.90;;
48094;SDS011;33874;52.070;-0.516;2023-07-02T05:59:53;17.80;;;6.80;;
48094;SDS011;33874;52.070;-0.516;2023-07-02T06:02:21;26.20;;;7.20;;
48094;SDS011;33874;52.070;-0.516;2023-07-02T06:04:49;14.80;;;6.20;;
48094;SDS011;33874;52.070;-0.516;2023-07-02T06:07:17;20.10;;;7.00;;
48094;SDS011;33874;52.070;-0.516;2023-07-02T06:09:45;19.00;;;6.30;;
48094;SDS011;33874;52.070;-0.516;2023-07-02T06:12:13;18.50;;;6.00;;
48094;SDS011;33874;52.070;-0.516;2023-07-02T06:14:41;16.20;;;6.10;;
48094;SDS011;33874;52.070;-0.516;2023-07-02T06:17:09;12.80;;;5.40;;
48094;SDS011;33874;52.070;-0.516;2023-07-02T06:19:37;13.60;;;6.00;;
48094;SDS011;33874;52.070;-0.516;2023-07-02T06:22:05;14.30;;;5.40;;
48094;SDS011;33874;52.070;-0.516;2023-07-02T06:24:33;16.00;;;6.20;;
48094;SDS011;33874;52.070;-0.516;2023-07-02T06:27:01;11.80;;;5.50;;
48094;SDS011;33874;52.070;-0.516;2023-07-02T06:29:30;12.60;;;5.30;;
48094;SDS011;33874;52.070;-0.516;2023-07-02T06:31:59;11.70;;;5.30;;
48094;SDS011;33874;52.070;-0.516;2023-07-02T06:34:27;11.60;;;5.30;;
48094;SDS011;33874;52.070;-0.516;2023-07-02T06:36:55;12.20;;;4.90;;
48094;SDS011;33874;52.070;-0.516;2023-07-02T06:39:23;15.50;;;5.40;;
48094;SDS011;33874;52.070;-0.516;2023-07-02T06:41:51;12.90;;;5.20;;
48094;SDS011;33874;52.070;-0.516;2023-07-02T06:44:19;9.80;;;4.50;;
48094;SDS011;33874;52.070;-0.516;2023-07-02T06:46:47;13.30;;;4.70;;
48094;SDS011;33874;52.070;-0.516;2023-07-02T06:49:15;12.20;;;4.80;;
48094;SDS011;33874;52.070;-0.516;2023-07-02T06:51:44;14.80;;;4.90;;
48094;SDS011;33874;52.070;-0.516;2023-07-02T06:54:12;13.20;;;4.70;;
48094;SDS011;33874;52.070;-0.516;2023-07-02T06:56:41;10.90;;;4.60;;
48094;SDS011;33874;52.070;-0.516;2023-07-02T06:59:09;9.70;;;4.90;;
48094;SDS011;33874;52.070;-0.516;2023-07-02T07:01:37;11.00;;;4.90;;
48094;SDS011;33874;52.070;-0.516;2023-07-02T07:04:04;11.10;;;4.70;;
48094;SDS011;33874;52.070;-0.516;2023-07-02T07:06:32;9.40;;;4.20;;
48094;SDS011;33874;52.070;-0.516;2023-07-02T07:09:01;10.20;;;4.40;;
48094;SDS011;33874;52.070;-0.516;2023-07-02T07:11:29;10.60;;;4.90;;
48094;SDS011;33874;52.070;-0.516;2023-07-02T07:13:57;7.90;;;4.10;;
48094;SDS011;33874;52.070;-0.516;2023-07-02T07:16:25;11.20;;;4.20;;
48094;SDS011;33874;52.070;-0.516;2023-07-02T07:18:54;10.90;;;4.70;;
48094;SDS011;33874;52.070;-0.516;2023-07-02T07:21:22;11.60;;;4.80;;
48094;SDS011;33874;52.070;-0.516;2023-07-02T07:23:50;9.30;;;4.60;;
48094;SDS011;33874;52.070;-0.516;2023-07-02T07:26:18;9.60;;;4.30;;
48094;SDS011;33874;52.070;-0.516;2023-07-02T07:28:46;12.40;;;4.30;;
48094;SDS011;33874;52.070;-0.516;2023-07-02T07:31:14;8.10;;;4.00;;
48094;SDS011;33874;52.070;-0.516;2023-07-02T07:33:42;11.00;;;4.40;;
48094;SDS011;33874;52.070;-0.516;2023-07-02T07:36:11;10.10;;;4.00;;
48094;SDS011;33874;52.070;-0.516;2023-07-02T07:38:40;11.80;;;4.10;;
48094;SDS011;33874;52.070;-0.516;2023-07-02T07:41:08;8.50;;;4.40;;
48094;SDS011;33874;52.070;-0.516;2023-07-02T07:43:36;10.90;;;4.00;;
48094;SDS011;33874;52.070;-0.516;2023-07-02T07:46:04;11.00;;;4.50;;
48094;SDS011;33874;52.070;-0.516;2023-07-02T07:48:32;9.50;;;4.40;;
48094;SDS011;33874;52.070;-0.516;2023-07-02T07:51:00;10.00;;;4.10;;
48094;SDS011;33874;52.070;-0.516;2023-07-02T07:53:28;10.60;;;4.20;;
48094;SDS011;33874;52.070;-0.516;2023-07-02T07:55:57;11.30;;;3.80;;
48094;SDS011;33874;52.070;-0.516;2023-07-02T07:58:25;9.00;;;3.40;;
48094;SDS011;33874;52.070;-0.516;2023-07-02T08:00:53;13.30;;;4.20;;
48094;SDS011;33874;52.070;-0.516;2023-07-02T08:03:21;13.20;;;4.90;;
48094;SDS011;33874;52.070;-0.516;2023-07-02T08:05:50;11.40;;;4.10;;
48094;SDS011;33874;52.070;-0.516;2023-07-02T08:08:17;9.80;;;4.00;;
48094;SDS011;33874;52.070;-0.516;2023-07-02T08:10:45;9.70;;;4.10;;
48094;SDS011;33874;52.070;-0.516;2023-07-02T08:13:14;7.90;;;3.40;;
48094;SDS011;33874;52.070;-0.516;2023-07-02T08:15:42;8.30;;;3.80;;
48094;SDS011;33874;52.070;-0.516;2023-07-02T08:18:12;8.30;;;3.30;;
48094;SDS011;33874;52.070;-0.516;2023-07-02T08:20:41;6.70;;;2.80;;
48094;SDS011;33874;52.070;-0.516;2023-07-02T08:23:09;8.70;;;3.50;;
48094;SDS011;33874;52.070;-0.516;2023-07-02T08:25:37;8.10;;;3.40;;
48094;SDS011;33874;52.070;-0.516;2023-07-02T08:28:05;13.80;;;4.20;;
48094;SDS011;33874;52.070;-0.516;2023-07-02T08:30:33;6.60;;;2.90;;
48094;SDS011;33874;52.070;-0.516;2023-07-02T08:33:00;7.90;;;3.10;;
48094;SDS011;33874;52.070;-0.516;2023-07-02T08:35:29;9.70;;;3.40;;
48094;SDS011;33874;52.070;-0.516;2023-07-02T08:37:57;10.70;;;3.60;;
48094;SDS011;33874;52.070;-0.516;2023-07-02T08:40:26;13.20;;;3.70;;
48094;SDS011;33874;52.070;-0.516;2023-07-02T08:42:54;9.30;;;3.50;;
48094;SDS011;33874;52.070;-0.516;2023-07-02T08:45:24;7.40;;;3.50;;
48094;SDS011;33874;52.070;-0.516;2023-07-02T08:47:53;9.80;;;3.50;;
48094;SDS011;33874;52.070;-0.516;2023-07-02T08:50:25;11.30;;;3.50;;
48094;SDS011;33874;52.070;-0.516;2023-07-02T08:52:54;13.70;;;3.40;;
48094;SDS011;33874;52.070;-0.516;2023-07-02T08:55:21;7.60;;;3.50;;
48094;SDS011;33874;52.070;-0.516;2023-07-02T08:57:52;10.50;;;3.30;;
48094;SDS011;33874;52.070;-0.516;2023-07-02T09:02:50;9.00;;;3.00;;
48094;SDS011;33874;52.070;-0.516;2023-07-02T09:05:18;12.70;;;3.90;;
48094;SDS011;33874;52.070;-0.516;2023-07-02T09:07:47;12.30;;;4.50;;
48094;SDS011;33874;52.070;-0.516;2023-07-02T09:10:27;9.60;;;3.70;;
48094;SDS011;33874;52.070;-0.516;2023-07-02T09:13:06;11.30;;;3.70;;
48094;SDS011;33874;52.070;-0.516;2023-07-02T09:15:35;12.50;;;4.20;;
48094;SDS011;33874;52.070;-0.516;2023-07-02T09:18:20;8.10;;;3.50;;
48094;SDS011;33874;52.070;-0.516;2023-07-02T09:20:51;11.20;;;3.90;;
48094;SDS011;33874;52.070;-0.516;2023-07-02T09:23:21;10.30;;;3.50;;
48094;SDS011;33874;52.070;-0.516;2023-07-02T09:26:05;10.70;;;3.80;;
48094;SDS011;33874;52.070;-0.516;2023-07-02T09:28:33;10.50;;;3.20;;
48094;SDS011;33874;52.070;-0.516;2023-07-02T09:31:01;13.10;;;3.80;;
48094;SDS011;33874;52.070;-0.516;2023-07-02T09:33:29;13.70;;;4.10;;
48094;SDS011;33874;52.070;-0.516;2023-07-02T09:35:58;9.90;;;3.90;;
48094;SDS011;33874;52.070;-0.516;2023-07-02T09:38:26;8.10;;;3.70;;
48094;SDS011;33874;52.070;-0.516;2023-07-02T09:40:54;11.10;;;3.40;;
48094;SDS011;33874;52.070;-0.516;2023-07-02T09:43:22;11.80;;;4.60;;
48094;SDS011;33874;52.070;-0.516;2023-07-02T09:45:52;10.50;;;3.90;;
48094;SDS011;33874;52.070;-0.516;2023-07-02T09:48:24;8.80;;;3.10;;
48094;SDS011;33874;52.070;-0.516;2023-07-02T09:50:56;8.70;;;3.50;;
48094;SDS011;33874;52.070;-0.516;2023-07-02T09:53:27;8.50;;;3.60;;
48094;SDS011;33874;52.070;-0.516;2023-07-02T09:55:56;12.50;;;4.10;;
48094;SDS011;33874;52.070;-0.516;2023-07-02T09:58:24;13.70;;;4.20;;
48094;SDS011;33874;52.070;-0.516;2023-07-02T10:00:52;12.20;;;4.20;;
48094;SDS011;33874;52.070;-0.516;2023-07-02T10:03:35;11.90;;;4.20;;
48094;SDS011;33874;52.070;-0.516;2023-07-02T10:06:16;9.50;;;3.60;;
48094;SDS011;33874;52.070;-0.516;2023-07-02T10:08:56;12.70;;;3.90;;
48094;SDS011;33874;52.070;-0.516;2023-07-02T10:11:33;11.00;;;4.00;;
48094;SDS011;33874;52.070;-0.516;2023-07-02T10:14:04;12.10;;;4.40;;
48094;SDS011;33874;52.070;-0.516;2023-07-02T10:16:32;12.50;;;3.90;;
48094;SDS011;33874;52.070;-0.516;2023-07-02T10:19:12;8.60;;;3.70;;
48094;SDS011;33874;52.070;-0.516;2023-07-02T10:21:41;12.40;;;3.60;;
48094;SDS011;33874;52.070;-0.516;2023-07-02T10:24:12;9.60;;;4.10;;
48094;SDS011;33874;52.070;-0.516;2023-07-02T10:27:02;11.90;;;4.80;;
48094;SDS011;33874;52.070;-0.516;2023-07-02T10:29:33;7.70;;;3.40;;
48094;SDS011;33874;52.070;-0.516;2023-07-02T10:32:01;9.20;;;3.70;;
48094;SDS011;33874;52.070;-0.516;2023-07-02T10:34:34;13.70;;;4.40;;
48094;SDS011;33874;52.070;-0.516;2023-07-02T10:37:03;13.90;;;4.00;;
48094;SDS011;33874;52.070;-0.516;2023-07-02T10:39:32;13.30;;;4.10;;
48094;SDS011;33874;52.070;-0.516;2023-07-02T10:42:06;9.50;;;3.80;;
48094;SDS011;33874;52.070;-0.516;2023-07-02T10:44:46;9.30;;;3.60;;
48094;SDS011;33874;52.070;-0.516;2023-07-02T10:47:18;12.10;;;4.40;;
48094;SDS011;33874;52.070;-0.516;2023-07-02T10:49:47;8.50;;;3.50;;
48094;SDS011;33874;52.070;-0.516;2023-07-02T10:52:14;10.90;;;3.60;;
48094;SDS011;33874;52.070;-0.516;2023-07-02T10:54:43;13.70;;;3.80;;
48094;SDS011;33874;52.070;-0.516;2023-07-02T10:57:13;10.10;;;3.40;;
48094;SDS011;33874;52.070;-0.516;2023-07-02T10:59:48;10.90;;;3.70;;
48094;SDS011;33874;52.070;-0.516;2023-07-02T11:02:17;13.30;;;3.90;;
48094;SDS011;33874;52.070;-0.516;2023-07-02T11:04:45;14.60;;;4.70;;
48094;SDS011;33874;52.070;-0.516;2023-07-02T11:07:14;10.50;;;3.60;;
48094;SDS011;33874;52.070;-0.516;2023-07-02T11:09:49;11.20;;;3.60;;
48094;SDS011;33874;52.070;-0.516;2023-07-02T11:12:18;8.90;;;3.50;;
48094;SDS011;33874;52.070;-0.516;2023-07-02T11:14:55;11.20;;;3.50;;
48094;SDS011;33874;52.070;-0.516;2023-07-02T11:17:26;9.70;;;3.40;;
48094;SDS011;33874;52.070;-0.516;2023-07-02T11:19:54;11.70;;;3.30;;
48094;SDS011;33874;52.070;-0.516;2023-07-02T11:22:30;7.50;;;2.90;;
48094;SDS011;33874;52.070;-0.516;2023-07-02T11:25:08;10.80;;;2.80;;
48094;SDS011;33874;52.070;-0.516;2023-07-02T11:27:47;7.60;;;2.90;;
48094;SDS011;33874;52.070;-0.516;2023-07-02T11:30:15;9.40;;;2.60;;
48094;SDS011;33874;52.070;-0.516;2023-07-02T11:32:50;10.40;;;3.00;;
48094;SDS011;33874;52.070;-0.516;2023-07-02T11:35:20;7.80;;;2.70;;
48094;SDS011;33874;52.070;-0.516;2023-07-02T11:37:49;10.40;;;3.10;;
48094;SDS011;33874;52.070;-0.516;2023-07-02T11:40:17;7.60;;;2.70;;
48094;SDS011;33874;52.070;-0.516;2023-07-02T11:42:46;12.00;;;3.40;;
48094;SDS011;33874;52.070;-0.516;2023-07-02T11:45:14;9.00;;;2.60;;
48094;SDS011;33874;52.070;-0.516;2023-07-02T11:47:42;8.10;;;2.90;;
48094;SDS011;33874;52.070;-0.516;2023-07-02T11:50:10;12.00;;;3.10;;
48094;SDS011;33874;52.070;-0.516;2023-07-02T11:52:53;8.20;;;2.90;;
48094;SDS011;33874;52.070;-0.516;2023-07-02T11:55:21;9.00;;;3.20;;
48094;SDS011;33874;52.070;-0.516;2023-07-02T11:57:49;4.80;;;2.10;;
48094;SDS011;33874;52.070;-0.516;2023-07-02T12:00:17;9.90;;;2.60;;
48094;SDS011;33874;52.070;-0.516;2023-07-02T12:02:45;9.80;;;2.40;;
48094;SDS011;33874;52.070;-0.516;2023-07-02T12:05:13;10.60;;;2.80;;
48094;SDS011;33874;52.070;-0.516;2023-07-02T12:07:42;7.80;;;3.40;;
48094;SDS011;33874;52.070;-0.516;2023-07-02T12:10:09;7.00;;;2.80;;
48094;SDS011;33874;52.070;-0.516;2023-07-02T12:12:38;8.30;;;2.80;;
48094;SDS011;33874;52.070;-0.516;2023-07-02T12:15:06;11.60;;;2.70;;
48094;SDS011;33874;52.070;-0.516;2023-07-02T12:17:34;10.10;;;2.40;;
48094;SDS011;33874;52.070;-0.516;2023-07-02T12:20:02;7.30;;;2.30;;
48094;SDS011;33874;52.070;-0.516;2023-07-02T12:22:31;6.70;;;2.40;;
48094;SDS011;33874;52.070;-0.516;2023-07-02T12:24:59;8.60;;;2.40;;
48094;SDS011;33874;52.070;-0.516;2023-07-02T12:27:27;7.50;;;2.10;;
48094;SDS011;33874;52.070;-0.516;2023-07-02T12:29:55;9.90;;;2.50;;
48094;SDS011;33874;52.070;-0.516;2023-07-02T12:32:24;8.90;;;3.00;;
48094;SDS011;33874;52.070;-0.516;2023-07-02T12:34:52;9.70;;;2.30;;
48094;SDS011;33874;52.070;-0.516;2023-07-02T12:37:20;6.90;;;2.40;;
48094;SDS011;33874;52.070;-0.516;2023-07-02T12:39:48;8.90;;;2.50;;
48094;SDS011;33874;52.070;-0.516;2023-07-02T12:42:16;7.40;;;1.80;;
48094;SDS011;33874;52.070;-0.516;2023-07-02T12:44:44;7.70;;;2.10;;
48094;SDS011;33874;52.070;-0.516;2023-07-02T12:47:12;9.90;;;2.50;;
48094;SDS011;33874;52.070;-0.516;2023-07-02T12:49:40;8.20;;;2.20;;
48094;SDS011;33874;52.070;-0.516;2023-07-02T12:52:08;8.90;;;2.50;;
48094;SDS011;33874;52.070;-0.516;2023-07-02T12:54:36;8.60;;;2.50;;
48094;SDS011;33874;52.070;-0.516;2023-07-02T12:57:04;8.20;;;2.40;;
48094;SDS011;33874;52.070;-0.516;2023-07-02T12:59:32;11.10;;;2.90;;
48094;SDS011;33874;52.070;-0.516;2023-07-02T13:02:00;9.10;;;2.10;;
48094;SDS011;33874;52.070;-0.516;2023-07-02T13:04:28;10.90;;;2.40;;
48094;SDS011;33874;52.070;-0.516;2023-07-02T13:06:56;7.50;;;2.20;;
48094;SDS011;33874;52.070;-0.516;2023-07-02T13:09:24;7.40;;;2.60;;
48094;SDS011;33874;52.070;-0.516;2023-07-02T13:11:52;9.10;;;2.30;;
48094;SDS011;33874;52.070;-0.516;2023-07-02T13:14:20;7.90;;;2.50;;
48094;SDS011;33874;52.070;-0.516;2023-07-02T13:16:48;7.80;;;2.40;;
48094;SDS011;33874;52.070;-0.516;2023-07-02T13:19:16;9.70;;;2.60;;
48094;SDS011;33874;52.070;-0.516;2023-07-02T13:21:44;10.20;;;2.40;;
48094;SDS011;33874;52.070;-0.516;2023-07-02T13:24:12;8.30;;;2.20;;
48094;SDS011;33874;52.070;-0.516;2023-07-02T13:26:40;8.80;;;2.10;;
48094;SDS011;33874;52.070;-0.516;2023-07-02T13:29:12;10.80;;;3.30;;
48094;SDS011;33874;52.070;-0.516;2023-07-02T13:31:40;8.70;;;2.60;;
48094;SDS011;33874;52.070;-0.516;2023-07-02T13:34:08;9.20;;;2.60;;
48094;SDS011;33874;52.070;-0.516;2023-07-02T13:36:36;11.60;;;2.80;;
48094;SDS011;33874;52.070;-0.516;2023-07-02T13:39:04;9.20;;;2.60;;
48094;SDS011;33874;52.070;-0.516;2023-07-02T13:41:32;9.00;;;2.80;;
48094;SDS011;33874;52.070;-0.516;2023-07-02T13:44:01;8.50;;;2.60;;
48094;SDS011;33874;52.070;-0.516;2023-07-02T13:46:29;5.50;;;2.20;;
48094;SDS011;33874;52.070;-0.516;2023-07-02T13:48:57;10.70;;;2.70;;
48094;SDS011;33874;52.070;-0.516;2023-07-02T13:51:25;9.00;;;3.10;;
48094;SDS011;33874;52.070;-0.516;2023-07-02T13:53:53;8.80;;;2.20;;
48094;SDS011;33874;52.070;-0.516;2023-07-02T13:56:21;13.50;;;4.80;;
48094;SDS011;33874;52.070;-0.516;2023-07-02T14:01:23;10.90;;;2.80;;
48094;SDS011;33874;52.070;-0.516;2023-07-02T14:03:52;10.30;;;3.40;;
48094;SDS011;33874;52.070;-0.516;2023-07-02T14:06:22;10.10;;;2.40;;
48094;SDS011;33874;52.070;-0.516;2023-07-02T14:08:50;12.70;;;5.80;;
48094;SDS011;33874;52.070;-0.516;2023-07-02T14:11:18;13.80;;;8.80;;
48094;SDS011;33874;52.070;-0.516;2023-07-02T14:13:47;8.90;;;3.10;;
48094;SDS011;33874;52.070;-0.516;2023-07-02T14:16:15;7.40;;;2.00;;
48094;SDS011;33874;52.070;-0.516;2023-07-02T14:18:43;9.90;;;2.10;;
48094;SDS011;33874;52.070;-0.516;2023-07-02T14:21:11;10.80;;;2.70;;
48094;SDS011;33874;52.070;-0.516;2023-07-02T14:23:39;9.60;;;2.80;;
48094;SDS011;33874;52.070;-0.516;2023-07-02T14:26:07;10.50;;;3.00;;
48094;SDS011;33874;52.070;-0.516;2023-07-02T14:28:35;8.10;;;2.20;;
48094;SDS011;33874;52.070;-0.516;2023-07-02T14:31:04;8.80;;;2.40;;
48094;SDS011;33874;52.070;-0.516;2023-07-02T14:33:33;8.20;;;1.90;;
48094;SDS011;33874;52.070;-0.516;2023-07-02T14:36:03;11.50;;;2.70;;